Un Karadeniz — TCTD3 — position and weather

sailwx.info

Track history (hours):
 
Tides and Currents Weather Stations Pressure Air Temp Water Temp Dewpoint Dewpoint Depression Visibility Wind Speed Wind Dir Waves Ship Positions

Un Karadeniz

Last reported at 2016-Dec-03 21:33 UTC. Time now 2016-Dec-03 21:49 UTC.
Position N 45°39' E 013°38'.

Length 193 m; draft 6.9 m.

Type: Ship (hazmat cat A). MMSI: 271002571.

Date/timePositionNaut miles runAvg speedWind from/ knotsBaromVisibWave heightAir tempDewpointWater temp
2016-Dec-03 21:33N 45°39' E 013°38'5 4.9
2016-Dec-03 20:32N 45°39' E 013°45'0 0.0
2016-Dec-03 19:32N 45°39' E 013°45'0 0.0
2016-Dec-03 18:25N 45°39' E 013°45'0 0.0
2016-Dec-03 17:31N 45°39' E 013°45'0 0.0
2016-Dec-03 16:33N 45°39' E 013°45'0 0.0
2016-Dec-03 15:33N 45°39' E 013°45'0 0.0
2016-Dec-03 14:33N 45°39' E 013°45'0 0.0
2016-Dec-03 13:32N 45°39' E 013°45'0 0.0
2016-Dec-03 12:32N 45°39' E 013°45'0 0.0
2016-Dec-03 11:31N 45°39' E 013°45'0 0.0
2016-Dec-03 10:33N 45°39' E 013°45'1413.5
2016-Dec-03 09:33N 45°33' E 013°28'1818.1
2016-Dec-03 08:33N 45°17' E 013°15'2020.0
2016-Dec-03 07:33N 44°58' E 013°23'2020.3
2016-Dec-03 06:33N 44°41' E 013°38'2020.4
2016-Dec-03 05:33N 44°24' E 013°54'62217.3
2016-Dec-01 17:31N 37°24' E 024°01'2020.6
2016-Dec-01 16:33N 37°40' E 024°15'2121.1
2016-Dec-01 15:32N 37°56' E 024°34'25518.2
2016-Dec-01 01:28N 40°51' E 028°34'1819.8
2016-Dec-01 00:33N 40°50' E 028°58'1413.8
2016-Nov-30 23:34N 40°51' E 029°16'0 0.0
2016-Nov-30 22:25N 40°51' E 029°16'0 0.0
2016-Nov-30 21:31N 40°51' E 029°16'0 0.0
2016-Nov-30 20:31N 40°51' E 029°16'0 0.0
2016-Nov-30 19:33N 40°51' E 029°16'0 0.0
2016-Nov-30 18:33N 40°51' E 029°16'0 0.0
2016-Nov-30 17:32N 40°51' E 029°16'0 0.0
2016-Nov-30 16:32N 40°51' E 029°16'0 0.0
2016-Nov-30 15:31N 40°51' E 029°16'0 0.0
2016-Nov-30 14:31N 40°51' E 029°16'1 0.5
2016-Nov-30 13:33N 40°51' E 029°16'1616.6
2016-Nov-30 12:33N 40°46' E 028°55'26515.6
2016-Nov-29 19:33N 37°53' E 024°35'2718.3
2016-Nov-29 18:05N 37°29' E 024°18'1018.4
2016-Nov-29 17:33N 37°22' E 024°10'61416.6
2016-Nov-28 04:33N 44°08' E 014°03'1919.2
2016-Nov-28 03:33N 44°24' E 013°48'1919.2
2016-Nov-28 02:33N 44°40' E 013°33'1919.4
2016-Nov-28 01:33N 44°56' E 013°19'1919.4
2016-Nov-28 00:33N 45°13' E 013°05'1716.9
2016-Nov-27 23:33N 45°29' E 013°14'1918.9
2016-Nov-27 22:33N 45°39' E 013°37'6 5.6
2016-Nov-27 21:32N 45°39' E 013°45'0 0.0
2016-Nov-27 20:31N 45°39' E 013°45'0 0.0
2016-Nov-27 19:31N 45°39' E 013°45'0 0.0
2016-Nov-27 18:34N 45°39' E 013°45'0 0.0
2016-Nov-27 17:30N 45°39' E 013°45'0 0.0
2016-Nov-27 16:33N 45°39' E 013°45'0 0.0
2016-Nov-27 15:29N 45°39' E 013°45'0 0.0
2016-Nov-27 14:32N 45°39' E 013°45'0 0.0
2016-Nov-27 13:31N 45°39' E 013°45'0 0.0
2016-Nov-27 12:31N 45°39' E 013°45'0 0.0
2016-Nov-27 11:34N 45°39' E 013°45'0 0.0
2016-Nov-27 10:33N 45°39' E 013°45'0 0.0
2016-Nov-27 09:33N 45°39' E 013°45'5 5.2
2016-Nov-27 08:33N 45°38' E 013°38'1919.3
2016-Nov-27 07:33N 45°25' E 013°17'1818.4
2016-Nov-27 06:33N 45°07' E 013°19'2019.7
2016-Nov-27 05:33N 44°49' E 013°31'2020.0
2016-Nov-27 04:33N 44°32' E 013°46'2020.2
2016-Nov-27 03:33N 44°16' E 014°01'61015.6
2016-Nov-25 12:22N 37°34' E 024°09'1919.9
2016-Nov-25 11:24N 37°48' E 024°25'14019.9
2016-Nov-25 04:24N 39°51' E 025°52'  
Track history (hours):
 
Tides and Currents Weather Stations Pressure Air Temp Water Temp Dewpoint Dewpoint Depression Visibility Wind Speed Wind Dir Waves Ship Positions

Un Karadeniz

Last reported at 2016-Dec-03 21:33 UTC. Time now 2016-Dec-03 21:49 UTC.
Position N 45°39' E 013°38'.

Length 193 m; draft 6.9 m.

Type: Ship (hazmat cat A). MMSI: 271002571.

Date/timePositionNaut miles runAvg speedWind from/ knotsBaromVisibWave heightAir tempDewpointWater temp
2016-Dec-03 21:33N 45°39' E 013°38'5 4.9
2016-Dec-03 20:32N 45°39' E 013°45'0 0.0
2016-Dec-03 19:32N 45°39' E 013°45'0 0.0
2016-Dec-03 18:25N 45°39' E 013°45'0 0.0
2016-Dec-03 17:31N 45°39' E 013°45'0 0.0
2016-Dec-03 16:33N 45°39' E 013°45'0 0.0
2016-Dec-03 15:33N 45°39' E 013°45'0 0.0
2016-Dec-03 14:33N 45°39' E 013°45'0 0.0
2016-Dec-03 13:32N 45°39' E 013°45'0 0.0
2016-Dec-03 12:32N 45°39' E 013°45'0 0.0
2016-Dec-03 11:31N 45°39' E 013°45'0 0.0
2016-Dec-03 10:33N 45°39' E 013°45'1413.5
2016-Dec-03 09:33N 45°33' E 013°28'1818.1
2016-Dec-03 08:33N 45°17' E 013°15'2020.0
2016-Dec-03 07:33N 44°58' E 013°23'2020.3
2016-Dec-03 06:33N 44°41' E 013°38'2020.4
2016-Dec-03 05:33N 44°24' E 013°54'62217.3
2016-Dec-01 17:31N 37°24' E 024°01'2020.6
2016-Dec-01 16:33N 37°40' E 024°15'2121.1
2016-Dec-01 15:32N 37°56' E 024°34'25518.2
2016-Dec-01 01:28N 40°51' E 028°34'1819.8
2016-Dec-01 00:33N 40°50' E 028°58'1413.8
2016-Nov-30 23:34N 40°51' E 029°16'0 0.0
2016-Nov-30 22:25N 40°51' E 029°16'0 0.0
2016-Nov-30 21:31N 40°51' E 029°16'0 0.0
2016-Nov-30 20:31N 40°51' E 029°16'0 0.0
2016-Nov-30 19:33N 40°51' E 029°16'0 0.0
2016-Nov-30 18:33N 40°51' E 029°16'0 0.0
2016-Nov-30 17:32N 40°51' E 029°16'0 0.0
2016-Nov-30 16:32N 40°51' E 029°16'0 0.0
2016-Nov-30 15:31N 40°51' E 029°16'0 0.0
2016-Nov-30 14:31N 40°51' E 029°16'1 0.5
2016-Nov-30 13:33N 40°51' E 029°16'1616.6
2016-Nov-30 12:33N 40°46' E 028°55'26515.6
2016-Nov-29 19:33N 37°53' E 024°35'2718.3
2016-Nov-29 18:05N 37°29' E 024°18'1018.4
2016-Nov-29 17:33N 37°22' E 024°10'61416.6
2016-Nov-28 04:33N 44°08' E 014°03'1919.2
2016-Nov-28 03:33N 44°24' E 013°48'1919.2
2016-Nov-28 02:33N 44°40' E 013°33'1919.4
2016-Nov-28 01:33N 44°56' E 013°19'1919.4
2016-Nov-28 00:33N 45°13' E 013°05'1716.9
2016-Nov-27 23:33N 45°29' E 013°14'1918.9
2016-Nov-27 22:33N 45°39' E 013°37'6 5.6
2016-Nov-27 21:32N 45°39' E 013°45'0 0.0
2016-Nov-27 20:31N 45°39' E 013°45'0 0.0
2016-Nov-27 19:31N 45°39' E 013°45'0 0.0
2016-Nov-27 18:34N 45°39' E 013°45'0 0.0
2016-Nov-27 17:30N 45°39' E 013°45'0 0.0
2016-Nov-27 16:33N 45°39' E 013°45'0 0.0
2016-Nov-27 15:29N 45°39' E 013°45'0 0.0
2016-Nov-27 14:32N 45°39' E 013°45'0 0.0
2016-Nov-27 13:31N 45°39' E 013°45'0 0.0
2016-Nov-27 12:31N 45°39' E 013°45'0 0.0
2016-Nov-27 11:34N 45°39' E 013°45'0 0.0
2016-Nov-27 10:33N 45°39' E 013°45'0 0.0
2016-Nov-27 09:33N 45°39' E 013°45'5 5.2
2016-Nov-27 08:33N 45°38' E 013°38'1919.3
2016-Nov-27 07:33N 45°25' E 013°17'1818.4
2016-Nov-27 06:33N 45°07' E 013°19'2019.7
2016-Nov-27 05:33N 44°49' E 013°31'2020.0
2016-Nov-27 04:33N 44°32' E 013°46'2020.2
2016-Nov-27 03:33N 44°16' E 014°01'61015.6
2016-Nov-25 12:22N 37°34' E 024°09'1919.9
2016-Nov-25 11:24N 37°48' E 024°25'14019.9
2016-Nov-25 04:24N 39°51' E 025°52'  

Dump ship's entire track history